sensor_id;sensor_type;location;lat;lon;timestamp;pressure;altitude;pressure_sealevel;temperature;humidity
28626;BME280;18905;42.668;23.364;2022-11-15T00:00:49;95697.16;;;5.07;100.00
28626;BME280;18905;42.668;23.364;2022-11-15T00:03:15;95695.28;;;5.02;100.00
28626;BME280;18905;42.668;23.364;2022-11-15T00:05:41;95678.72;;;4.90;100.00
28626;BME280;18905;42.668;23.364;2022-11-15T00:08:07;95692.88;;;4.91;100.00
28626;BME280;18905;42.668;23.364;2022-11-15T00:10:33;95688.59;;;4.90;100.00
28626;BME280;18905;42.668;23.364;2022-11-15T00:12:58;95694.22;;;4.98;100.00
28626;BME280;18905;42.668;23.364;2022-11-15T00:15:24;95696.09;;;5.03;100.00
28626;BME280;18905;42.668;23.364;2022-11-15T00:17:49;95698.78;;;5.03;100.00
28626;BME280;18905;42.668;23.364;2022-11-15T00:20:19;95688.59;;;4.90;100.00
28626;BME280;18905;42.668;23.364;2022-11-15T00:22:44;95675.75;;;4.82;100.00
28626;BME280;18905;42.668;23.364;2022-11-15T00:25:09;95689.41;;;4.95;100.00
28626;BME280;18905;42.668;23.364;2022-11-15T00:27:35;95692.88;;;4.96;100.00
28626;BME280;18905;42.668;23.364;2022-11-15T00:30:00;95685.09;;;4.89;100.00
28626;BME280;18905;42.668;23.364;2022-11-15T00:32:26;95683.50;;;4.88;100.00
28626;BME280;18905;42.668;23.364;2022-11-15T00:34:51;95668.28;;;4.79;100.00
28626;BME280;18905;42.668;23.364;2022-11-15T00:37:16;95679.75;;;4.84;100.00
28626;BME280;18905;42.668;23.364;2022-11-15T00:39:42;95646.06;;;4.63;100.00
28626;BME280;18905;42.668;23.364;2022-11-15T00:42:07;95650.06;;;4.66;100.00
28626;BME280;18905;42.668;23.364;2022-11-15T00:44:33;95659.97;;;4.65;100.00
28626;BME280;18905;42.668;23.364;2022-11-15T00:46:58;95669.31;;;4.73;100.00
28626;BME280;18905;42.668;23.364;2022-11-15T00:49:23;95650.84;;;4.61;100.00
28626;BME280;18905;42.668;23.364;2022-11-15T00:51:49;95620.09;;;4.44;100.00
28626;BME280;18905;42.668;23.364;2022-11-15T00:54:14;95674.16;;;4.81;100.00
28626;BME280;18905;42.668;23.364;2022-11-15T00:56:39;95672.00;;;4.78;100.00
28626;BME280;18905;42.668;23.364;2022-11-15T00:59:05;95651.41;;;4.63;100.00
28626;BME280;18905;42.668;23.364;2022-11-15T01:01:30;95665.31;;;4.75;100.00
28626;BME280;18905;42.668;23.364;2022-11-15T01:03:55;95654.09;;;4.58;100.00
28626;BME280;18905;42.668;23.364;2022-11-15T01:06:21;95652.75;;;4.61;100.00
28626;BME280;18905;42.668;23.364;2022-11-15T01:08:46;95655.94;;;4.63;100.00
28626;BME280;18905;42.668;23.364;2022-11-15T01:11:12;95636.16;;;4.49;100.00
28626;BME280;18905;42.668;23.364;2022-11-15T01:13:38;95661.03;;;4.64;100.00
28626;BME280;18905;42.668;23.364;2022-11-15T01:16:15;95660.22;;;4.59;100.00
28626;BME280;18905;42.668;23.364;2022-11-15T01:18:42;95655.94;;;4.53;100.00
28626;BME280;18905;42.668;23.364;2022-11-15T01:21:10;95662.63;;;4.55;100.00
28626;BME280;18905;42.668;23.364;2022-11-15T01:23:36;95655.13;;;4.57;100.00
28626;BME280;18905;42.668;23.364;2022-11-15T01:26:03;95651.41;;;4.58;100.00
28626;BME280;18905;42.668;23.364;2022-11-15T01:28:30;95644.72;;;4.51;100.00
28626;BME280;18905;42.668;23.364;2022-11-15T01:31:00;95647.66;;;4.59;100.00
28626;BME280;18905;42.668;23.364;2022-11-15T01:33:27;95634.81;;;4.41;100.00
28626;BME280;18905;42.668;23.364;2022-11-15T01:35:52;95644.16;;;4.44;100.00
28626;BME280;18905;42.668;23.364;2022-11-15T01:38:18;95659.44;;;4.48;100.00
28626;BME280;18905;42.668;23.364;2022-11-15T01:40:43;95640.97;;;4.42;100.00
28626;BME280;18905;42.668;23.364;2022-11-15T01:43:22;95653.28;;;4.53;100.00
28626;BME280;18905;42.668;23.364;2022-11-15T01:45:56;95636.41;;;4.42;100.00
28626;BME280;18905;42.668;23.364;2022-11-15T01:48:30;95637.22;;;4.38;100.00
28626;BME280;18905;42.668;23.364;2022-11-15T01:50:57;95657.53;;;4.49;100.00
28626;BME280;18905;42.668;23.364;2022-11-15T01:53:24;95650.34;;;4.44;100.00
28626;BME280;18905;42.668;23.364;2022-11-15T01:55:51;95639.88;;;4.38;100.00
28626;BME280;18905;42.668;23.364;2022-11-15T01:58:17;95639.34;;;4.41;100.00
28626;BME280;18905;42.668;23.364;2022-11-15T02:00:42;95650.06;;;4.51;100.00
28626;BME280;18905;42.668;23.364;2022-11-15T02:03:08;95646.84;;;4.54;100.00
28626;BME280;18905;42.668;23.364;2022-11-15T02:05:35;95651.66;;;4.52;100.00
28626;BME280;18905;42.668;23.364;2022-11-15T02:08:01;95629.19;;;4.38;100.00
28626;BME280;18905;42.668;23.364;2022-11-15T02:10:27;95648.72;;;4.48;100.00
28626;BME280;18905;42.668;23.364;2022-11-15T02:12:54;95641.75;;;4.37;100.00
28626;BME280;18905;42.668;23.364;2022-11-15T02:15:22;95632.38;;;4.30;100.00
28626;BME280;18905;42.668;23.364;2022-11-15T02:31:41;95642.22;;;3.99;100.00
28626;BME280;18905;42.668;23.364;2022-11-15T02:37:16;95638.47;;;4.00;100.00
28626;BME280;18905;42.668;23.364;2022-11-15T02:39:59;95637.16;;;4.08;100.00
28626;BME280;18905;42.668;23.364;2022-11-15T02:42:33;95629.84;;;3.73;100.00
28626;BME280;18905;42.668;23.364;2022-11-15T02:45:26;95637.09;;;3.83;100.00
28626;BME280;18905;42.668;23.364;2022-11-15T02:47:54;95606.50;;;3.54;100.00
28626;BME280;18905;42.668;23.364;2022-11-15T02:50:25;95652.97;;;3.53;100.00
28626;BME280;18905;42.668;23.364;2022-11-15T02:52:53;95639.50;;;3.28;100.00
28626;BME280;18905;42.668;23.364;2022-11-15T02:55:46;95640.97;;;3.09;100.00
28626;BME280;18905;42.668;23.364;2022-11-15T03:01:12;95635.03;;;2.60;100.00
28626;BME280;18905;42.668;23.364;2022-11-15T03:11:49;95637.47;;;2.04;100.00
28626;BME280;18905;42.668;23.364;2022-11-15T03:14:32;95640.97;;;2.09;100.00
28626;BME280;18905;42.668;23.364;2022-11-15T03:17:32;95630.31;;;1.83;100.00
28626;BME280;18905;42.668;23.364;2022-11-15T03:20:03;95641.16;;;2.03;100.00
28626;BME280;18905;42.668;23.364;2022-11-15T03:22:35;95642.72;;;1.99;100.00
28626;BME280;18905;42.668;23.364;2022-11-15T03:25:04;95624.06;;;1.99;100.00
28626;BME280;18905;42.668;23.364;2022-11-15T03:27:37;95628.50;;;2.15;100.00
28626;BME280;18905;42.668;23.364;2022-11-15T03:30:05;95638.34;;;2.14;100.00
28626;BME280;18905;42.668;23.364;2022-11-15T03:32:44;95592.03;;;1.89;100.00
28626;BME280;18905;42.668;23.364;2022-11-15T03:35:18;95609.09;;;2.19;100.00
28626;BME280;18905;42.668;23.364;2022-11-15T03:40:14;95618.03;;;2.35;100.00
28626;BME280;18905;42.668;23.364;2022-11-15T03:42:54;95615.69;;;2.12;100.00
28626;BME280;18905;42.668;23.364;2022-11-15T03:45:27;95603.59;;;1.99;100.00
28626;BME280;18905;42.668;23.364;2022-11-15T03:48:05;95621.59;;;2.14;100.00
28626;BME280;18905;42.668;23.364;2022-11-15T03:50:34;95609.72;;;2.00;100.00
28626;BME280;18905;42.668;23.364;2022-11-15T03:53:00;95591.94;;;1.79;100.00
28626;BME280;18905;42.668;23.364;2022-11-15T03:55:25;95589.81;;;1.81;100.00
28626;BME280;18905;42.668;23.364;2022-11-15T03:57:54;95594.25;;;1.97;100.00
28626;BME280;18905;42.668;23.364;2022-11-15T04:00:21;95571.25;;;1.86;100.00
28626;BME280;18905;42.668;23.364;2022-11-15T04:02:46;95603.00;;;1.92;100.00
28626;BME280;18905;42.668;23.364;2022-11-15T04:05:12;95604.19;;;1.80;100.00
28626;BME280;18905;42.668;23.364;2022-11-15T04:07:37;95604.34;;;1.95;100.00
28626;BME280;18905;42.668;23.364;2022-11-15T04:10:03;95581.56;;;1.82;100.00
28626;BME280;18905;42.668;23.364;2022-11-15T04:12:34;95599.53;;;1.92;100.00
28626;BME280;18905;42.668;23.364;2022-11-15T04:15:03;95608.72;;;2.06;100.00
28626;BME280;18905;42.668;23.364;2022-11-15T04:17:35;95605.28;;;2.10;100.00
28626;BME280;18905;42.668;23.364;2022-11-15T04:20:03;95598.25;;;1.99;100.00
28626;BME280;18905;42.668;23.364;2022-11-15T04:22:47;95595.31;;;1.96;100.00
28626;BME280;18905;42.668;23.364;2022-11-15T04:25:31;95591.38;;;2.03;100.00
28626;BME280;18905;42.668;23.364;2022-11-15T04:27:56;95564.34;;;1.63;100.00
28626;BME280;18905;42.668;23.364;2022-11-15T04:30:22;95582.69;;;1.86;100.00
28626;BME280;18905;42.668;23.364;2022-11-15T04:32:47;95594.56;;;2.05;100.00
28626;BME280;18905;42.668;23.364;2022-11-15T04:35:13;95563.44;;;2.06;100.00
28626;BME280;18905;42.668;23.364;2022-11-15T04:37:38;95546.91;;;2.04;100.00
28626;BME280;18905;42.668;23.364;2022-11-15T04:40:04;95612.44;;;2.36;100.00
28626;BME280;18905;42.668;23.364;2022-11-15T04:42:29;95567.22;;;2.83;100.00
28626;BME280;18905;42.668;23.364;2022-11-15T04:44:55;95598.72;;;4.34;100.00
28626;BME280;18905;42.668;23.364;2022-11-15T04:47:21;95598.44;;;4.95;100.00
28626;BME280;18905;42.668;23.364;2022-11-15T04:49:46;95594.16;;;5.73;100.00
28626;BME280;18905;42.668;23.364;2022-11-15T04:52:11;95608.31;;;6.37;100.00
28626;BME280;18905;42.668;23.364;2022-11-15T04:54:37;95588.94;;;9.07;100.00
28626;BME280;18905;42.668;23.364;2022-11-15T04:57:02;95594.66;;;10.05;100.00
28626;BME280;18905;42.668;23.364;2022-11-15T04:59:28;95605.78;;;9.58;100.00
28626;BME280;18905;42.668;23.364;2022-11-15T05:01:53;95600.66;;;8.84;100.00
28626;BME280;18905;42.668;23.364;2022-11-15T05:04:18;95607.38;;;8.49;100.00
28626;BME280;18905;42.668;23.364;2022-11-15T05:06:44;95607.34;;;8.12;100.00
28626;BME280;18905;42.668;23.364;2022-11-15T05:09:10;95597.06;;;7.54;100.00
28626;BME280;18905;42.668;23.364;2022-11-15T05:11:35;95599.41;;;6.80;100.00
28626;BME280;18905;42.668;23.364;2022-11-15T05:14:01;95603.16;;;6.79;100.00
28626;BME280;18905;42.668;23.364;2022-11-15T05:16:26;95599.72;;;6.73;100.00
28626;BME280;18905;42.668;23.364;2022-11-15T05:18:53;95570.16;;;6.45;100.00
28626;BME280;18905;42.668;23.364;2022-11-15T05:21:18;95592.53;;;6.30;100.00
28626;BME280;18905;42.668;23.364;2022-11-15T05:23:44;95574.94;;;6.14;100.00
28626;BME280;18905;42.668;23.364;2022-11-15T05:26:10;95601.53;;;6.11;100.00
28626;BME280;18905;42.668;23.364;2022-11-15T05:28:36;95593.44;;;6.16;100.00
28626;BME280;18905;42.668;23.364;2022-11-15T05:31:13;95602.34;;;6.06;100.00
28626;BME280;18905;42.668;23.364;2022-11-15T05:33:40;95599.50;;;5.88;100.00
28626;BME280;18905;42.668;23.364;2022-11-15T05:36:12;95582.13;;;5.70;100.00
28626;BME280;18905;42.668;23.364;2022-11-15T05:38:39;95597.38;;;5.75;100.00
28626;BME280;18905;42.668;23.364;2022-11-15T05:41:04;95599.25;;;5.74;100.00
28626;BME280;18905;42.668;23.364;2022-11-15T05:43:33;95582.97;;;5.66;100.00
28626;BME280;18905;42.668;23.364;2022-11-15T05:46:00;95586.72;;;5.60;100.00
28626;BME280;18905;42.668;23.364;2022-11-15T05:48:27;95596.88;;;5.68;100.00
28626;BME280;18905;42.668;23.364;2022-11-15T05:50:52;95579.53;;;5.50;100.00
28626;BME280;18905;42.668;23.364;2022-11-15T05:53:19;95595.56;;;5.60;100.00
28626;BME280;18905;42.668;23.364;2022-11-15T05:55:47;95601.72;;;5.61;100.00
28626;BME280;18905;42.668;23.364;2022-11-15T05:58:12;95597.41;;;5.65;100.00
28626;BME280;18905;42.668;23.364;2022-11-15T06:00:38;95590.28;;;5.40;100.00
28626;BME280;18905;42.668;23.364;2022-11-15T06:03:04;95588.16;;;5.37;100.00
28626;BME280;18905;42.668;23.364;2022-11-15T06:05:29;95608.22;;;5.40;100.00
28626;BME280;18905;42.668;23.364;2022-11-15T06:07:58;95599.16;;;5.31;100.00
28626;BME280;18905;42.668;23.364;2022-11-15T06:10:24;95609.56;;;5.37;100.00
28626;BME280;18905;42.668;23.364;2022-11-15T06:13:16;95609.31;;;5.34;100.00
28626;BME280;18905;42.668;23.364;2022-11-15T06:15:41;95612.25;;;5.37;100.00
28626;BME280;18905;42.668;23.364;2022-11-15T06:18:06;95608.75;;;5.42;100.00
28626;BME280;18905;42.668;23.364;2022-11-15T06:20:32;95610.38;;;5.33;100.00
28626;BME280;18905;42.668;23.364;2022-11-15T06:23:02;95610.94;;;5.30;100.00
28626;BME280;18905;42.668;23.364;2022-11-15T06:25:28;95619.56;;;5.07;100.00
28626;BME280;18905;42.668;23.364;2022-11-15T06:27:54;95612.03;;;5.14;100.00
28626;BME280;18905;42.668;23.364;2022-11-15T06:30:21;95618.44;;;5.23;100.00
28626;BME280;18905;42.668;23.364;2022-11-15T06:32:46;95585.25;;;5.24;100.00
28626;BME280;18905;42.668;23.364;2022-11-15T06:35:12;95608.25;;;5.35;100.00
28626;BME280;18905;42.668;23.364;2022-11-15T06:37:38;95593.78;;;5.36;100.00
28626;BME280;18905;42.668;23.364;2022-11-15T06:40:04;95599.91;;;5.46;100.00
28626;BME280;18905;42.668;23.364;2022-11-15T06:42:29;95597.53;;;5.35;100.00
28626;BME280;18905;42.668;23.364;2022-11-15T06:44:55;95607.50;;;5.04;100.00
28626;BME280;18905;42.668;23.364;2022-11-15T06:47:20;95584.75;;;5.02;100.00
28626;BME280;18905;42.668;23.364;2022-11-15T06:49:45;95599.16;;;5.26;100.00
28626;BME280;18905;42.668;23.364;2022-11-15T06:52:11;95603.69;;;5.30;100.00
28626;BME280;18905;42.668;23.364;2022-11-15T06:54:36;95606.06;;;5.37;100.00
28626;BME280;18905;42.668;23.364;2022-11-15T06:57:04;95593.28;;;5.24;100.00
28626;BME280;18905;42.668;23.364;2022-11-15T06:59:29;95615.50;;;5.19;100.00
28626;BME280;18905;42.668;23.364;2022-11-15T07:01:54;95585.78;;;5.21;100.00
28626;BME280;18905;42.668;23.364;2022-11-15T07:04:20;95613.81;;;5.48;100.00
28626;BME280;18905;42.668;23.364;2022-11-15T07:06:48;95597.97;;;5.62;100.00
28626;BME280;18905;42.668;23.364;2022-11-15T07:09:14;95578.28;;;5.23;100.00
28626;BME280;18905;42.668;23.364;2022-11-15T07:11:39;95597.88;;;5.08;100.00
28626;BME280;18905;42.668;23.364;2022-11-15T07:14:05;95604.56;;;5.01;100.00
28626;BME280;18905;42.668;23.364;2022-11-15T07:16:30;95595.47;;;5.07;100.00
28626;BME280;18905;42.668;23.364;2022-11-15T07:18:56;95596.44;;;5.36;100.00
28626;BME280;18905;42.668;23.364;2022-11-15T07:21:21;95587.91;;;5.34;100.00
28626;BME280;18905;42.668;23.364;2022-11-15T07:23:46;95580.63;;;5.44;100.00
28626;BME280;18905;42.668;23.364;2022-11-15T07:26:12;95587.25;;;5.62;100.00
28626;BME280;18905;42.668;23.364;2022-11-15T07:28:37;95580.84;;;5.58;100.00
28626;BME280;18905;42.668;23.364;2022-11-15T07:31:05;95594.44;;;5.66;100.00
28626;BME280;18905;42.668;23.364;2022-11-15T07:33:31;95586.47;;;5.56;100.00
28626;BME280;18905;42.668;23.364;2022-11-15T07:36:00;95592.00;;;5.85;100.00
28626;BME280;18905;42.668;23.364;2022-11-15T07:38:27;95593.88;;;5.84;100.00
28626;BME280;18905;42.668;23.364;2022-11-15T07:41:01;95595.16;;;5.92;100.00
28626;BME280;18905;42.668;23.364;2022-11-15T07:43:26;95586.78;;;6.03;100.00
28626;BME280;18905;42.668;23.364;2022-11-15T07:45:57;95590.78;;;6.06;100.00
28626;BME280;18905;42.668;23.364;2022-11-15T07:48:23;95593.75;;;6.09;100.00
28626;BME280;18905;42.668;23.364;2022-11-15T07:50:48;95595.66;;;6.04;100.00
28626;BME280;18905;42.668;23.364;2022-11-15T07:53:14;95579.03;;;6.07;100.00
28626;BME280;18905;42.668;23.364;2022-11-15T07:55:40;95593.88;;;6.28;100.00
28626;BME280;18905;42.668;23.364;2022-11-15T07:58:08;95596.25;;;6.34;100.00
28626;BME280;18905;42.668;23.364;2022-11-15T08:00:34;95586.31;;;6.40;100.00
28626;BME280;18905;42.668;23.364;2022-11-15T08:03:15;95593.97;;;6.56;100.00
28626;BME280;18905;42.668;23.364;2022-11-15T08:05:41;95583.38;;;6.70;100.00
28626;BME280;18905;42.668;23.364;2022-11-15T08:08:09;95586.53;;;6.77;100.00
28626;BME280;18905;42.668;23.364;2022-11-15T08:10:35;95590.19;;;6.19;100.00
28626;BME280;18905;42.668;23.364;2022-11-15T08:13:03;95570.63;;;5.70;100.00
28626;BME280;18905;42.668;23.364;2022-11-15T08:15:30;95575.81;;;6.05;100.00
28626;BME280;18905;42.668;23.364;2022-11-15T08:18:08;95583.34;;;6.41;100.00
28626;BME280;18905;42.668;23.364;2022-11-15T08:20:34;95579.53;;;6.09;100.00
28626;BME280;18905;42.668;23.364;2022-11-15T08:23:02;95569.38;;;6.01;100.00
28626;BME280;18905;42.668;23.364;2022-11-15T08:25:30;95567.03;;;5.89;100.00
28626;BME280;18905;42.668;23.364;2022-11-15T08:27:57;95571.78;;;5.49;100.00
28626;BME280;18905;42.668;23.364;2022-11-15T08:30:24;95572.69;;;5.83;100.00
28626;BME280;18905;42.668;23.364;2022-11-15T08:32:50;95576.38;;;6.02;100.00
28626;BME280;18905;42.668;23.364;2022-11-15T08:35:18;95583.03;;;6.09;100.00
28626;BME280;18905;42.668;23.364;2022-11-15T08:37:44;95580.72;;;6.36;100.00
28626;BME280;18905;42.668;23.364;2022-11-15T08:40:10;95576.94;;;5.94;100.00
28626;BME280;18905;42.668;23.364;2022-11-15T08:42:36;95534.84;;;5.99;100.00
28626;BME280;18905;42.668;23.364;2022-11-15T08:45:03;95554.38;;;6.00;100.00
28626;BME280;18905;42.668;23.364;2022-11-15T08:47:29;95569.50;;;6.24;100.00
28626;BME280;18905;42.668;23.364;2022-11-15T08:49:54;95566.25;;;6.32;100.00
28626;BME280;18905;42.668;23.364;2022-11-15T08:52:20;95533.75;;;6.39;100.00
28626;BME280;18905;42.668;23.364;2022-11-15T08:54:46;95546.22;;;6.20;100.00
28626;BME280;18905;42.668;23.364;2022-11-15T08:57:12;95553.97;;;6.21;100.00
28626;BME280;18905;42.668;23.364;2022-11-15T08:59:37;95549.69;;;6.20;100.00
28626;BME280;18905;42.668;23.364;2022-11-15T09:02:03;95556.28;;;6.33;100.00
28626;BME280;18905;42.668;23.364;2022-11-15T09:04:28;95524.47;;;5.88;100.00
28626;BME280;18905;42.668;23.364;2022-11-15T09:06:54;95498.75;;;5.77;100.00
28626;BME280;18905;42.668;23.364;2022-11-15T09:09:19;95541.75;;;6.44;100.00
28626;BME280;18905;42.668;23.364;2022-11-15T09:11:45;95541.72;;;6.10;100.00
28626;BME280;18905;42.668;23.364;2022-11-15T09:14:12;95535.63;;;6.00;100.00
28626;BME280;18905;42.668;23.364;2022-11-15T09:16:37;95526.09;;;5.79;100.00
28626;BME280;18905;42.668;23.364;2022-11-15T09:19:03;95513.81;;;5.68;100.00
28626;BME280;18905;42.668;23.364;2022-11-15T09:21:29;95530.88;;;5.87;100.00
28626;BME280;18905;42.668;23.364;2022-11-15T09:23:55;95525.94;;;6.04;100.00
28626;BME280;18905;42.668;23.364;2022-11-15T09:26:20;95523.72;;;6.16;100.00
28626;BME280;18905;42.668;23.364;2022-11-15T09:28:46;95502.34;;;6.06;100.00
28626;BME280;18905;42.668;23.364;2022-11-15T09:31:11;95518.75;;;5.94;100.00
28626;BME280;18905;42.668;23.364;2022-11-15T09:33:37;95480.50;;;5.89;100.00
28626;BME280;18905;42.668;23.364;2022-11-15T09:36:04;95508.75;;;6.10;100.00
28626;BME280;18905;42.668;23.364;2022-11-15T09:38:31;95504.97;;;6.44;100.00
28626;BME280;18905;42.668;23.364;2022-11-15T09:44:04;95495.72;;;6.89;100.00
28626;BME280;18905;42.668;23.364;2022-11-15T09:49:01;95501.25;;;6.97;100.00
28626;BME280;18905;42.668;23.364;2022-11-15T09:51:39;95499.72;;;7.15;100.00
28626;BME280;18905;42.668;23.364;2022-11-15T09:57:16;95476.41;;;7.10;100.00
28626;BME280;18905;42.668;23.364;2022-11-15T10:06:04;95467.13;;;7.45;100.00
28626;BME280;18905;42.668;23.364;2022-11-15T10:11:29;95443.97;;;7.86;100.00
28626;BME280;18905;42.668;23.364;2022-11-15T10:14:20;95453.59;;;8.24;100.00
28626;BME280;18905;42.668;23.364;2022-11-15T10:20:22;95445.59;;;8.96;100.00
28626;BME280;18905;42.668;23.364;2022-11-15T10:22:53;95437.91;;;8.90;100.00
28626;BME280;18905;42.668;23.364;2022-11-15T10:25:22;95445.84;;;8.81;100.00
28626;BME280;18905;42.668;23.364;2022-11-15T10:30:22;95441.38;;;9.17;100.00
28626;BME280;18905;42.668;23.364;2022-11-15T10:32:48;95438.09;;;9.07;100.00
28626;BME280;18905;42.668;23.364;2022-11-15T10:35:32;95425.91;;;9.09;100.00
28626;BME280;18905;42.668;23.364;2022-11-15T10:38:08;95393.56;;;9.36;100.00
28626;BME280;18905;42.668;23.364;2022-11-15T10:40:34;95411.78;;;9.66;100.00
28626;BME280;18905;42.668;23.364;2022-11-15T10:45:34;95413.63;;;9.17;100.00
28626;BME280;18905;42.668;23.364;2022-11-15T10:50:39;95403.84;;;8.40;100.00
28626;BME280;18905;42.668;23.364;2022-11-15T10:53:17;95394.09;;;8.57;100.00
28626;BME280;18905;42.668;23.364;2022-11-15T10:55:50;95396.81;;;8.25;100.00
28626;BME280;18905;42.668;23.364;2022-11-15T10:58:37;95402.16;;;8.71;100.00
28626;BME280;18905;42.668;23.364;2022-11-15T11:01:29;95384.63;;;9.00;100.00
28626;BME280;18905;42.668;23.364;2022-11-15T11:03:59;95379.94;;;8.79;100.00
28626;BME280;18905;42.668;23.364;2022-11-15T11:06:24;95379.56;;;7.94;100.00
28626;BME280;18905;42.668;23.364;2022-11-15T11:08:57;95363.78;;;8.20;100.00
28626;BME280;18905;42.668;23.364;2022-11-15T11:11:24;95370.16;;;8.42;100.00
28626;BME280;18905;42.668;23.364;2022-11-15T11:13:50;95369.25;;;8.15;100.00
28626;BME280;18905;42.668;23.364;2022-11-15T11:16:31;95353.63;;;8.62;100.00
28626;BME280;18905;42.668;23.364;2022-11-15T11:24:14;95351.75;;;8.63;100.00
28626;BME280;18905;42.668;23.364;2022-11-15T11:29:57;95343.72;;;9.83;100.00
28626;BME280;18905;42.668;23.364;2022-11-15T11:35:19;95329.88;;;9.40;100.00
28626;BME280;18905;42.668;23.364;2022-11-15T11:40:43;95314.13;;;9.34;100.00
28626;BME280;18905;42.668;23.364;2022-11-15T11:46:09;95302.47;;;8.22;100.00
28626;BME280;18905;42.668;23.364;2022-11-15T11:48:42;95303.47;;;8.39;100.00
28626;BME280;18905;42.668;23.364;2022-11-15T11:51:15;95300.06;;;8.20;100.00
28626;BME280;18905;42.668;23.364;2022-11-15T11:56:28;95289.59;;;8.59;100.00
28626;BME280;18905;42.668;23.364;2022-11-15T11:59:00;95288.59;;;8.82;100.00
28626;BME280;18905;42.668;23.364;2022-11-15T12:01:35;95270.69;;;8.51;100.00
28626;BME280;18905;42.668;23.364;2022-11-15T12:06:56;95260.06;;;8.81;100.00
28626;BME280;18905;42.668;23.364;2022-11-15T12:09:31;95264.63;;;9.08;100.00
28626;BME280;18905;42.668;23.364;2022-11-15T12:14:51;95257.25;;;9.00;100.00
28626;BME280;18905;42.668;23.364;2022-11-15T12:17:23;95247.03;;;8.75;100.00
28626;BME280;18905;42.668;23.364;2022-11-15T12:19:49;95247.78;;;9.02;100.00
28626;BME280;18905;42.668;23.364;2022-11-15T12:24:57;95240.59;;;9.33;100.00
28626;BME280;18905;42.668;23.364;2022-11-15T12:27:41;95246.31;;;9.18;100.00
28626;BME280;18905;42.668;23.364;2022-11-15T12:30:15;95238.25;;;9.40;100.00
28626;BME280;18905;42.668;23.364;2022-11-15T12:32:57;95229.59;;;9.52;100.00
28626;BME280;18905;42.668;23.364;2022-11-15T12:35:37;95234.25;;;9.82;100.00
28626;BME280;18905;42.668;23.364;2022-11-15T12:38:04;95219.75;;;9.47;100.00
28626;BME280;18905;42.668;23.364;2022-11-15T12:40:35;95226.84;;;9.65;100.00
28626;BME280;18905;42.668;23.364;2022-11-15T12:43:40;95193.97;;;9.11;100.00
28626;BME280;18905;42.668;23.364;2022-11-15T12:46:12;95222.88;;;9.41;100.00
28626;BME280;18905;42.668;23.364;2022-11-15T12:51:03;95216.78;;;9.79;100.00
28626;BME280;18905;42.668;23.364;2022-11-15T12:53:30;95209.16;;;9.29;100.00
28626;BME280;18905;42.668;23.364;2022-11-15T12:56:15;95218.16;;;9.24;100.00
28626;BME280;18905;42.668;23.364;2022-11-15T12:58:59;95210.53;;;9.40;100.00
28626;BME280;18905;42.668;23.364;2022-11-15T13:19:46;95191.56;;;9.53;100.00
28626;BME280;18905;42.668;23.364;2022-11-15T13:22:13;95187.56;;;9.73;100.00
28626;BME280;18905;42.668;23.364;2022-11-15T13:24:57;95177.66;;;9.38;100.00
28626;BME280;18905;42.668;23.364;2022-11-15T13:27:24;95156.38;;;9.28;100.00
28626;BME280;18905;42.668;23.364;2022-11-15T13:29:50;95178.41;;;9.52;100.00
28626;BME280;18905;42.668;23.364;2022-11-15T13:32:16;95162.22;;;9.52;100.00
28626;BME280;18905;42.668;23.364;2022-11-15T13:34:47;95166.13;;;9.68;100.00
28626;BME280;18905;42.668;23.364;2022-11-15T13:39:44;95168.72;;;9.51;100.00
28626;BME280;18905;42.668;23.364;2022-11-15T13:42:15;95155.59;;;9.58;100.00
28626;BME280;18905;42.668;23.364;2022-11-15T13:44:55;95173.56;;;9.71;100.00
28626;BME280;18905;42.668;23.364;2022-11-15T13:47:20;95166.28;;;9.71;100.00
28626;BME280;18905;42.668;23.364;2022-11-15T13:49:46;95175.50;;;9.70;100.00
28626;BME280;18905;42.668;23.364;2022-11-15T13:52:14;95161.44;;;9.51;100.00
28626;BME280;18905;42.668;23.364;2022-11-15T13:57:44;95165.19;;;9.42;100.00
28626;BME280;18905;42.668;23.364;2022-11-15T14:00:30;95163.72;;;9.66;100.00
28626;BME280;18905;42.668;23.364;2022-11-15T14:03:07;95148.81;;;9.60;100.00
28626;BME280;18905;42.668;23.364;2022-11-15T14:05:39;95146.75;;;9.35;100.00
28626;BME280;18905;42.668;23.364;2022-11-15T14:10:45;95137.00;;;9.26;100.00
28626;BME280;18905;42.668;23.364;2022-11-15T14:13:27;95153.84;;;9.31;100.00
28626;BME280;18905;42.668;23.364;2022-11-15T14:15:53;95150.13;;;9.41;100.00
28626;BME280;18905;42.668;23.364;2022-11-15T14:18:45;95149.63;;;9.39;100.00
28626;BME280;18905;42.668;23.364;2022-11-15T14:21:11;95146.03;;;9.52;100.00
28626;BME280;18905;42.668;23.364;2022-11-15T14:23:36;95154.13;;;9.21;100.00
28626;BME280;18905;42.668;23.364;2022-11-15T14:26:02;95141.94;;;9.02;100.00
28626;BME280;18905;42.668;23.364;2022-11-15T14:28:32;95148.72;;;8.99;100.00
28626;BME280;18905;42.668;23.364;2022-11-15T14:31:00;95153.66;;;8.84;100.00
28626;BME280;18905;42.668;23.364;2022-11-15T14:33:34;95149.56;;;8.86;100.00
28626;BME280;18905;42.668;23.364;2022-11-15T14:36:20;95137.47;;;8.62;100.00
28626;BME280;18905;42.668;23.364;2022-11-15T14:38:46;95144.72;;;8.75;100.00
28626;BME280;18905;42.668;23.364;2022-11-15T14:41:21;95137.59;;;8.57;100.00
28626;BME280;18905;42.668;23.364;2022-11-15T14:43:47;95142.22;;;8.43;100.00
28626;BME280;18905;42.668;23.364;2022-11-15T14:46:12;95131.38;;;8.34;100.00
28626;BME280;18905;42.668;23.364;2022-11-15T14:48:38;95151.06;;;8.57;100.00
28626;BME280;18905;42.668;23.364;2022-11-15T14:51:12;95153.03;;;8.65;100.00
28626;BME280;18905;42.668;23.364;2022-11-15T14:53:38;95142.25;;;8.65;100.00
28626;BME280;18905;42.668;23.364;2022-11-15T14:56:04;95153.78;;;8.79;100.00